Americus, GA

12:29 PM EST en Diciembre 19, 2014 (GMT -0500)
Wildwood Circle | Change Station
CLOSE
Current Station
Estación meteorológica personal
Location: Americus, GA
Altura: 402 ft
Estaciones meteorológicas cercanas

Alt 402 ft 32.06 °N, 84.21 °W | Updated 59 minutes ago

Despejado
Despejado
54.7 ° F
Sensación térmica 54.7 ° F
N
0.4
Viento Variable Viento desde ENE
Gusts 2.2 mph

Hoy
Alta -- | Baja -- ° F
--% Posibilidad de precipitaciones
Ayer
Alta -- | Baja -- ° F
Precip. -- pul
7:32 AM 5:35 PM
Creciente menguante, 7% visible
Presión 30.19 pul
Visibilidad 10.0 Millas
Nubes Despejado
Punto de rocío 40 ° F
Humedad 57%
Precipitaciones 0.00 pul
Espesor de la nieve No disponible.
UV 4 de una escala de 12
Polen 1.00 de una escala de 12
Calidad del aire No disponible.
Flu Activity No disponible.
METAR KACJ 191715Z AUTO 00000KT 10SM CLR 12/02 A3019 RMK AO2

More Conditions Fewer Conditions

Presión 30.19 pul
Visibilidad 10.0 Millas
Nubes Despejado
Punto de rocío 40 ° F
Humedad 57%
Precipitaciones 0.00 pul
Espesor de la nieve No disponible.
UV 4 de una escala de 12
Polen 1.00 de una escala de 12
Calidad del aire No disponible.
Flu Activity No disponible.
METAR KACJ 191715Z AUTO 00000KT 10SM CLR 12/02 A3019 RMK AO2

More Conditions Fewer Conditions

10-Day Weather Forecast

Almanac

Astronomía

Dec. 19, 2014 Salida Puesta
Hora real
Crepúsculo civil
Crepúsculo náutico
Crepúsculo astronómico
Luna
Horas de luz
Horas de luz
Tomorrow will be .
, % of the Moon is Illuminated

Extremos de hoy

Máximos del estado Bajos del estado

Community

WunderPhotos

Upload Photos

1,779,007 ¡fotos cargadas!

WunderBlogs® & News

Nearby

Calidad del aire

  Calidad del aire Índice AQ Contaminante
Not available.

Grosos de nieve

Estación Profundido Altura

Actividad de terremotos

Ciudad Distance Mag. Tiempo y dato
Magnitud mínima muestra es 2,5.

Temperaturas de aguas costeras

Lugar Temperatura

Estaciones meteorológicas cercanas